Main page
METAR-TAF:

METAR-TAF

Airports :

Perth, Australia

Perth Airport

latitude: 31-56S, longitude: 115-57E, elevation: 20 m

Current weather observation

The report was made 30 minutes ago, at 21:30 UTC
Wind 13 kt from the South/Southeast
Temperature 20°C
Humidity 64%
Pressure 1013 hPa
Visibility 10 km or more
Broken clouds at a height of 3000 ft

METAR: YPPH 192130Z 15013KT 9999 BKN030 20/13 Q1013 NOSIG

Time: 06:00 (22:00 UTC)

Forecast

The report was made 4 hours and 48 minutes ago, at 17:12 UTC
Forecast valid from 19 at 18 UTC to 20 at 24 UTC
Wind 12 kt from the Southeast
Visibility 10 km or more
Scattered clouds at a height of 3500 ft
From 20 at 0300 UTC
Wind 12 kt from the Southeast
Visibility 10 km or more
no clouds below 1500 m and no cumulonimbus
From 20 at 1400 UTC
Wind 14 kt from the East/Southeast with gusts up to 24 kt
Visibility 10 km or more
no clouds below 1500 m and no cumulonimbus

TAF: YPPH 191712Z 1918/2024 14012KT 9999 SCT035 FM200300 13012KT CAVOK FM201400 11014G24KT CAVOK

Weather observations and forecasts of more than 4000 airports (METAR and TAF reports).

The available stations are represented by yellow and red dots on the map.

Hover mouse over dot to see the name of the station.

Then click to see weather observations and forecasts.

To change the map : click on the green buttons with a black cross to zoom in, on the green button with a dash to zoom out, or on the green arrows for adjacent maps.


METAR-TAF: